Carney, Iowa
Current Conditions -  °F | °C
As of 9:35 AM on Sunday 21 Dec 2014 (Local Time) from KIKV Reporting Station
Overcast Overcast  
Wind Chill: 31°   Ceiling: 2000
Heat Index: 39°   Visibility: 10mi
Dew Point: 36°   Wind: 15mph
Humidity: 87%   Direction: 190°S
Pressure: 29.95"   Gusts: 22mph
Location:  41.7257°N, 93.588°W
Report Text: KIKV 211535Z AUTO 19013G19KT 10SM OVC020 04/02 A2995 RMK AO2
Loading
Personal Weather Stations






























Interactive Weather Map New forecast layout! Learn more

10-Day Weather Forecast

Advertisements
Track Severe Weather on mobile